createdAt,value
2022-10-18T04:58:25.985Z,24.94
2022-10-18T05:37:42.535Z,24.58
2022-10-18T05:40:15.089Z,24.56
2022-10-18T05:48:11.109Z,24.92
2022-10-18T05:50:40.304Z,24.81
2022-10-18T05:53:12.256Z,24.56
2022-10-18T05:55:45.549Z,25.10
2022-10-18T05:58:12.578Z,24.69
2022-10-18T06:00:39.751Z,24.74
2022-10-18T06:03:33.656Z,24.66
2022-10-18T06:06:10.935Z,24.78
2022-10-18T06:08:50.155Z,24.65
2022-10-18T06:11:21.400Z,24.69
2022-10-18T06:14:01.106Z,25.27
2022-10-18T06:16:32.199Z,24.86
2022-10-18T06:19:00.379Z,24.92
2022-10-18T06:21:30.697Z,24.78
2022-10-18T06:23:59.391Z,25.10
2022-10-18T06:26:28.506Z,24.99
2022-10-18T06:28:55.635Z,25.16
2022-10-18T06:31:22.979Z,25.07
2022-10-18T06:33:50.258Z,24.74
2022-10-18T06:36:40.196Z,25.00
2022-10-18T06:39:07.357Z,25.00
2022-10-18T06:41:34.468Z,25.14
2022-10-18T06:44:07.470Z,25.31
2022-10-18T06:46:34.579Z,24.87
2022-10-18T06:49:01.678Z,24.77
2022-10-18T06:51:28.855Z,25.17
2022-10-18T06:54:13.324Z,24.82
2022-10-18T06:56:43.442Z,24.95
2022-10-18T06:59:11.985Z,24.86
2022-10-18T07:01:39.167Z,25.08
2022-10-18T07:04:06.373Z,25.12
2022-10-18T07:06:33.568Z,24.83
2022-10-18T07:09:03.213Z,25.07
2022-10-18T07:11:30.505Z,25.00
2022-10-18T07:14:05.145Z,24.87
2022-10-18T07:16:34.091Z,24.95
2022-10-18T07:19:01.351Z,25.04
2022-10-18T07:21:34.415Z,25.02
2022-10-18T07:24:01.634Z,25.11
2022-10-18T07:26:31.693Z,25.07
2022-10-18T07:29:11.609Z,24.88
2022-10-18T07:31:39.454Z,25.16
2022-10-18T07:34:07.861Z,24.69
2022-10-18T07:36:35.861Z,25.04
2022-10-18T07:39:05.019Z,24.86
2022-10-18T07:41:35.096Z,24.88
2022-10-18T07:44:03.356Z,24.97
2022-10-18T07:46:33.008Z,25.00
2022-10-18T07:49:00.290Z,24.59
2022-10-18T07:51:30.372Z,24.86
2022-10-18T07:53:59.363Z,24.76
2022-10-18T07:56:26.704Z,25.02
2022-10-18T07:58:56.202Z,25.14
2022-10-18T08:01:26.037Z,24.82
2022-10-18T08:03:54.815Z,25.13
2022-10-18T08:06:23.529Z,25.25
2022-10-18T08:08:51.153Z,24.91
2022-10-18T08:11:24.185Z,24.86
2022-10-18T08:13:54.162Z,24.82
2022-10-18T08:16:25.311Z,24.97
2022-10-18T08:18:52.939Z,24.87
2022-10-18T08:21:21.609Z,24.94
2022-10-18T08:23:49.522Z,24.86
2022-10-18T08:26:22.865Z,24.86
2022-10-18T08:29:17.490Z,25.08
2022-10-18T08:31:47.720Z,24.80
2022-10-18T08:34:19.863Z,24.68
2022-10-18T08:36:47.550Z,24.89
2022-10-18T08:39:14.825Z,24.87
2022-10-18T08:41:52.800Z,25.02
2022-10-18T08:44:31.015Z,24.92
2022-10-18T08:47:11.660Z,24.60
2022-10-18T08:49:46.282Z,25.17
2022-10-18T08:52:33.658Z,24.98
2022-10-18T08:55:08.564Z,24.88
2022-10-18T08:57:38.406Z,25.04
2022-10-18T09:00:18.117Z,24.75
2022-10-18T09:03:06.332Z,24.96
2022-10-18T09:05:49.994Z,24.98
2022-10-18T09:08:30.811Z,24.86
2022-10-18T09:11:25.356Z,24.70
2022-10-18T09:14:18.613Z,24.89
2022-10-18T09:17:19.766Z,24.66
2022-10-18T09:41:35.645Z,24.77
2022-10-18T09:49:14.353Z,24.21
2022-10-18T09:51:45.230Z,24.45
2022-10-18T09:57:59.884Z,23.79
2022-10-18T10:00:33.771Z,24.42
2022-10-18T10:03:02.235Z,23.70
2022-10-18T10:05:29.377Z,23.88
2022-10-18T10:08:00.255Z,24.34
2022-10-18T10:10:30.036Z,24.27
2022-10-18T10:13:16.101Z,24.25
2022-10-18T10:15:52.441Z,24.31
2022-10-18T10:18:26.994Z,24.22
2022-10-18T10:20:57.825Z,24.21
2022-10-18T10:24:11.816Z,24.31
2022-10-18T10:33:39.134Z,23.08
2022-10-18T10:40:18.489Z,23.02
2022-10-18T10:43:37.201Z,22.77
2022-10-18T10:46:32.449Z,22.97
2022-10-18T10:49:28.003Z,22.94
2022-10-18T10:52:08.799Z,22.80
2022-10-18T10:55:34.241Z,22.78
2022-10-18T10:58:04.839Z,22.71
2022-10-18T11:00:45.431Z,22.87
2022-10-18T11:03:34.271Z,22.74
2022-10-18T11:06:02.270Z,22.92
2022-10-18T11:08:39.195Z,23.10
2022-10-18T11:11:20.595Z,22.81
2022-10-18T11:14:25.170Z,22.73
2022-10-18T11:17:32.775Z,23.14
2022-10-18T11:20:11.348Z,23.10
2022-10-18T11:22:48.499Z,23.00
2022-10-18T11:25:17.377Z,22.68
2022-10-18T11:28:05.125Z,22.66
2022-10-18T11:30:55.230Z,22.68
2022-10-18T11:34:08.678Z,22.80
2022-10-18T11:37:26.257Z,22.72
2022-10-18T11:40:09.373Z,22.80
2022-10-18T11:42:49.844Z,22.45
2022-10-18T11:45:34.957Z,22.30
2022-10-18T11:48:11.107Z,22.72
2022-10-18T11:50:51.221Z,22.48
2022-10-18T11:53:34.907Z,22.42
2022-10-18T11:56:19.420Z,22.23
2022-10-18T11:59:26.058Z,22.34
2022-10-18T12:02:15.087Z,22.55
2022-10-18T12:05:23.212Z,22.60
2022-10-18T12:08:21.735Z,22.26
2022-10-18T12:11:06.266Z,22.26
2022-10-18T12:13:47.301Z,22.70
2022-10-18T12:16:32.750Z,22.24
2022-10-18T12:19:12.895Z,22.35
2022-10-18T12:21:54.585Z,22.06
2022-10-18T12:24:28.676Z,21.92
2022-10-18T12:27:06.251Z,22.12
2022-10-18T12:29:59.377Z,21.86
2022-10-18T12:32:38.803Z,21.81
2022-10-18T12:35:19.077Z,21.83
2022-10-18T12:38:05.906Z,21.61
2022-10-18T12:40:44.379Z,21.48
2022-10-18T12:43:21.870Z,21.39
2022-10-18T12:45:57.950Z,21.06
2022-10-18T12:48:50.522Z,21.53
2022-10-18T12:51:20.881Z,21.68
2022-10-18T12:56:36.102Z,21.19
2022-10-18T12:59:16.486Z,21.70
2022-10-18T13:01:56.054Z,21.64
2022-10-18T13:04:55.939Z,21.98
2022-10-18T13:07:36.232Z,21.54
2022-10-18T13:13:23.850Z,21.74
2022-10-18T13:16:27.350Z,21.88
2022-10-18T13:19:32.064Z,21.99
2022-10-18T13:22:48.442Z,21.81
2022-10-18T13:26:17.843Z,21.59
2022-10-18T13:39:44.793Z,21.75
2022-10-18T13:45:45.183Z,21.68
2022-10-18T13:48:54.704Z,21.71
2022-10-18T13:52:19.710Z,21.79
2022-10-18T13:55:34.837Z,21.94
2022-10-18T14:05:47.006Z,21.79
2022-10-18T14:11:46.095Z,21.64
2022-10-18T14:14:39.283Z,21.66
2022-10-18T14:17:32.321Z,21.65
2022-10-18T14:21:31.301Z,21.60
2022-10-18T14:23:47.015Z,21.60
2022-10-18T14:29:12.054Z,21.55
2022-10-18T14:32:21.868Z,21.62
2022-10-18T14:35:35.426Z,21.39
2022-10-18T14:38:21.472Z,21.74
2022-10-18T14:41:21.663Z,21.62
2022-10-18T14:44:13.601Z,21.46
2022-10-18T14:47:35.829Z,21.63
2022-10-18T14:50:03.741Z,21.35
2022-10-18T14:52:35.700Z,21.55
2022-10-18T14:55:07.652Z,21.50
2022-10-18T14:57:42.095Z,21.33
2022-10-18T15:03:27.220Z,21.50
2022-10-18T15:06:16.320Z,21.21
2022-10-18T15:09:01.036Z,21.47
2022-10-18T15:15:35.829Z,21.29
2022-10-18T15:19:07.951Z,21.26
2022-10-18T15:25:20.332Z,21.48
2022-10-18T15:28:33.303Z,21.78
2022-10-18T15:31:04.953Z,21.51
2022-10-18T15:33:39.021Z,21.55
2022-10-18T15:36:34.380Z,21.56
2022-10-18T15:39:48.759Z,21.68
2022-10-18T15:42:37.043Z,21.58
2022-10-18T15:45:24.288Z,21.66
2022-10-18T15:48:40.935Z,21.77
2022-10-18T15:59:35.895Z,21.85
2022-10-18T16:02:23.465Z,21.89
2022-10-18T16:04:55.826Z,22.02
2022-10-18T16:07:23.466Z,21.92
2022-10-18T16:09:50.680Z,21.90
2022-10-18T16:12:20.637Z,22.00
2022-10-18T16:14:48.008Z,21.94
2022-10-18T16:29:07.179Z,22.26
2022-10-18T17:09:49.432Z,22.21
2022-10-18T17:12:19.600Z,22.76
2022-10-18T17:14:50.741Z,22.35
2022-10-18T17:17:21.511Z,22.53
2022-10-18T17:19:50.690Z,22.32
2022-10-18T17:22:20.860Z,22.56
2022-10-18T17:24:51.048Z,22.35
2022-10-18T17:27:18.485Z,22.49
2022-10-18T17:29:47.904Z,22.43
2022-10-18T17:32:17.235Z,22.58
2022-10-18T17:34:46.064Z,22.58
2022-10-18T17:37:14.016Z,22.80
2022-10-18T17:39:41.080Z,22.39
2022-10-18T17:42:08.148Z,22.78
2022-10-18T17:44:35.437Z,22.54
2022-10-18T17:47:02.540Z,22.69
2022-10-18T17:49:29.709Z,22.83
2022-10-18T17:51:56.683Z,22.42
2022-10-18T17:54:24.042Z,22.58
2022-10-18T17:56:53.839Z,22.77
2022-10-18T17:59:21.686Z,22.94
2022-10-18T18:01:48.803Z,22.50
2022-10-18T18:04:17.376Z,23.11
2022-10-18T18:06:45.749Z,23.18
2022-10-18T18:09:14.741Z,23.05
2022-10-18T18:11:44.141Z,23.21
2022-10-18T18:14:14.626Z,22.84
2022-10-18T18:17:01.576Z,22.95
2022-10-18T18:19:30.786Z,22.82
2022-10-18T18:21:59.009Z,22.77
2022-10-18T18:24:27.763Z,23.05
2022-10-18T18:26:56.450Z,23.09
2022-10-18T18:29:26.958Z,23.22
2022-10-18T18:31:54.498Z,23.09
2022-10-18T18:34:22.550Z,23.01
2022-10-18T18:36:49.651Z,23.22
2022-10-18T18:39:30.046Z,23.11
2022-10-18T18:41:57.067Z,23.17
2022-10-18T18:44:25.327Z,23.43
2022-10-18T18:46:52.434Z,23.36
2022-10-18T18:49:19.489Z,23.39
2022-10-18T18:51:47.123Z,23.04
2022-10-18T18:54:15.292Z,23.20
2022-10-18T18:56:42.977Z,23.22
2022-10-18T18:59:14.392Z,23.39
2022-10-18T19:01:42.868Z,23.10
2022-10-18T19:04:10.524Z,23.11
2022-10-18T19:06:40.400Z,23.54
2022-10-18T19:09:19.313Z,23.13
2022-10-18T19:11:47.985Z,23.03
2022-10-18T19:14:15.205Z,23.20
2022-10-18T19:16:48.644Z,23.05
2022-10-18T19:19:18.854Z,23.54
2022-10-18T19:21:57.775Z,23.54
2022-10-18T19:24:26.543Z,23.45
2022-10-18T19:26:56.668Z,23.58
2022-10-18T19:29:29.355Z,23.77
2022-10-18T19:31:59.576Z,23.44
2022-10-18T19:34:28.926Z,23.85
2022-10-18T19:36:57.755Z,23.66
2022-10-18T19:39:30.621Z,23.41
2022-10-18T19:42:00.572Z,23.29
2022-10-18T19:44:31.749Z,23.68
2022-10-18T19:46:58.852Z,23.61
2022-10-18T19:49:26.438Z,23.46
2022-10-18T19:51:53.456Z,23.64
2022-10-18T19:54:20.525Z,23.89
2022-10-18T19:56:48.152Z,23.91
2022-10-18T19:59:16.652Z,23.59
2022-10-18T20:01:44.578Z,23.91
2022-10-18T20:04:13.191Z,23.98
